sensor_id;sensor_type;location;lat;lon;timestamp;temperature;humidity
30134;DHT22;16946;49.984;10.672;2024-01-16T00:00:19;0.90;94.00
30134;DHT22;16946;49.984;10.672;2024-01-16T00:00:50;0.80;98.00
30134;DHT22;16946;49.984;10.672;2024-01-16T00:01:20;0.80;99.90
30134;DHT22;16946;49.984;10.672;2024-01-16T00:01:51;0.80;96.50
30134;DHT22;16946;49.984;10.672;2024-01-16T00:02:22;0.70;95.80
30134;DHT22;16946;49.984;10.672;2024-01-16T00:02:52;0.70;99.90
30134;DHT22;16946;49.984;10.672;2024-01-16T00:03:23;0.70;99.90
30134;DHT22;16946;49.984;10.672;2024-01-16T00:03:53;0.70;99.90
30134;DHT22;16946;49.984;10.672;2024-01-16T00:04:24;0.70;99.90
30134;DHT22;16946;49.984;10.672;2024-01-16T00:04:57;0.80;99.90
30134;DHT22;16946;49.984;10.672;2024-01-16T00:05:27;0.80;99.90
30134;DHT22;16946;49.984;10.672;2024-01-16T00:05:58;0.80;98.50
30134;DHT22;16946;49.984;10.672;2024-01-16T00:06:28;0.70;95.70
30134;DHT22;16946;49.984;10.672;2024-01-16T00:06:59;0.70;94.30
30134;DHT22;16946;49.984;10.672;2024-01-16T00:07:30;0.70;99.30
30134;DHT22;16946;49.984;10.672;2024-01-16T00:08:03;0.70;98.50
30134;DHT22;16946;49.984;10.672;2024-01-16T00:08:33;0.70;96.50
30134;DHT22;16946;49.984;10.672;2024-01-16T00:09:04;0.60;94.40
30134;DHT22;16946;49.984;10.672;2024-01-16T00:09:35;0.60;94.90
30134;DHT22;16946;49.984;10.672;2024-01-16T00:10:09;0.60;98.10
30134;DHT22;16946;49.984;10.672;2024-01-16T00:10:40;0.70;99.90
30134;DHT22;16946;49.984;10.672;2024-01-16T00:11:10;0.60;99.90
30134;DHT22;16946;49.984;10.672;2024-01-16T00:11:42;0.70;99.90
30134;DHT22;16946;49.984;10.672;2024-01-16T00:12:12;0.70;99.90
30134;DHT22;16946;49.984;10.672;2024-01-16T00:12:43;0.80;99.90
30134;DHT22;16946;49.984;10.672;2024-01-16T00:13:13;0.70;99.90
30134;DHT22;16946;49.984;10.672;2024-01-16T00:13:44;0.80;99.90
30134;DHT22;16946;49.984;10.672;2024-01-16T00:14:14;0.80;99.30
30134;DHT22;16946;49.984;10.672;2024-01-16T00:14:45;0.80;93.40
30134;DHT22;16946;49.984;10.672;2024-01-16T00:15:15;0.80;86.00
30134;DHT22;16946;49.984;10.672;2024-01-16T00:15:46;0.80;85.40
30134;DHT22;16946;49.984;10.672;2024-01-16T00:16:16;0.80;79.00
30134;DHT22;16946;49.984;10.672;2024-01-16T00:16:47;0.70;81.10
30134;DHT22;16946;49.984;10.672;2024-01-16T00:17:18;0.80;85.30
30134;DHT22;16946;49.984;10.672;2024-01-16T00:17:49;0.80;86.10
30134;DHT22;16946;49.984;10.672;2024-01-16T00:18:20;0.80;91.10
30134;DHT22;16946;49.984;10.672;2024-01-16T00:18:50;0.80;96.40
30134;DHT22;16946;49.984;10.672;2024-01-16T00:19:21;0.70;93.30
30134;DHT22;16946;49.984;10.672;2024-01-16T00:19:51;0.70;93.80
30134;DHT22;16946;49.984;10.672;2024-01-16T00:20:22;0.70;82.10
30134;DHT22;16946;49.984;10.672;2024-01-16T00:20:53;0.70;78.00
30134;DHT22;16946;49.984;10.672;2024-01-16T00:21:24;0.70;79.10
30134;DHT22;16946;49.984;10.672;2024-01-16T00:21:54;0.70;79.00
30134;DHT22;16946;49.984;10.672;2024-01-16T00:22:25;0.80;71.30
30134;DHT22;16946;49.984;10.672;2024-01-16T00:22:56;0.70;69.20
30134;DHT22;16946;49.984;10.672;2024-01-16T00:23:26;0.80;68.90
30134;DHT22;16946;49.984;10.672;2024-01-16T00:23:57;0.80;69.30
30134;DHT22;16946;49.984;10.672;2024-01-16T00:24:27;0.80;72.90
30134;DHT22;16946;49.984;10.672;2024-01-16T00:24:58;0.80;63.90
30134;DHT22;16946;49.984;10.672;2024-01-16T00:25:28;0.80;62.10
30134;DHT22;16946;49.984;10.672;2024-01-16T00:25:59;0.80;58.20
30134;DHT22;16946;49.984;10.672;2024-01-16T00:26:29;0.80;59.60
30134;DHT22;16946;49.984;10.672;2024-01-16T00:27:00;0.80;59.50
30134;DHT22;16946;49.984;10.672;2024-01-16T00:27:30;0.80;62.10
30134;DHT22;16946;49.984;10.672;2024-01-16T00:28:01;0.80;67.60
30134;DHT22;16946;49.984;10.672;2024-01-16T00:28:32;0.80;71.00
30134;DHT22;16946;49.984;10.672;2024-01-16T00:29:03;0.80;73.80
30134;DHT22;16946;49.984;10.672;2024-01-16T00:29:33;0.80;75.50
30134;DHT22;16946;49.984;10.672;2024-01-16T00:30:04;0.80;81.60
30134;DHT22;16946;49.984;10.672;2024-01-16T00:30:35;0.80;78.70
30134;DHT22;16946;49.984;10.672;2024-01-16T00:31:07;0.80;67.10
30134;DHT22;16946;49.984;10.672;2024-01-16T00:31:41;0.80;62.70
30134;DHT22;16946;49.984;10.672;2024-01-16T00:32:12;0.80;62.60
30134;DHT22;16946;49.984;10.672;2024-01-16T00:32:46;0.90;62.50
30134;DHT22;16946;49.984;10.672;2024-01-16T00:33:17;0.80;64.80
30134;DHT22;16946;49.984;10.672;2024-01-16T00:33:47;0.80;63.80
30134;DHT22;16946;49.984;10.672;2024-01-16T00:34:18;0.80;63.00
30134;DHT22;16946;49.984;10.672;2024-01-16T00:34:48;0.90;62.30
30134;DHT22;16946;49.984;10.672;2024-01-16T00:35:19;0.90;58.40
30134;DHT22;16946;49.984;10.672;2024-01-16T00:35:50;0.90;56.30
30134;DHT22;16946;49.984;10.672;2024-01-16T00:36:20;0.90;56.20
30134;DHT22;16946;49.984;10.672;2024-01-16T00:36:51;0.90;58.90
30134;DHT22;16946;49.984;10.672;2024-01-16T00:37:21;0.90;58.50
30134;DHT22;16946;49.984;10.672;2024-01-16T00:37:52;0.90;61.20
30134;DHT22;16946;49.984;10.672;2024-01-16T00:38:22;0.90;63.90
30134;DHT22;16946;49.984;10.672;2024-01-16T00:38:53;0.90;67.80
30134;DHT22;16946;49.984;10.672;2024-01-16T00:39:23;0.90;74.90
30134;DHT22;16946;49.984;10.672;2024-01-16T00:39:54;0.90;63.00
30134;DHT22;16946;49.984;10.672;2024-01-16T00:40:24;0.90;65.70
30134;DHT22;16946;49.984;10.672;2024-01-16T00:40:55;0.90;71.00
30134;DHT22;16946;49.984;10.672;2024-01-16T00:41:25;0.90;74.00
30134;DHT22;16946;49.984;10.672;2024-01-16T00:41:57;0.80;71.20
30134;DHT22;16946;49.984;10.672;2024-01-16T00:42:27;0.80;75.50
30134;DHT22;16946;49.984;10.672;2024-01-16T00:42:58;0.80;82.40
30134;DHT22;16946;49.984;10.672;2024-01-16T00:43:28;0.80;86.70
30134;DHT22;16946;49.984;10.672;2024-01-16T00:43:59;0.80;92.30
30134;DHT22;16946;49.984;10.672;2024-01-16T00:44:29;0.80;94.10
30134;DHT22;16946;49.984;10.672;2024-01-16T00:45:00;0.80;94.50
30134;DHT22;16946;49.984;10.672;2024-01-16T00:45:31;0.80;98.30
30134;DHT22;16946;49.984;10.672;2024-01-16T00:46:01;0.80;99.90
30134;DHT22;16946;49.984;10.672;2024-01-16T00:46:32;0.70;97.80
30134;DHT22;16946;49.984;10.672;2024-01-16T00:47:03;0.70;92.80
30134;DHT22;16946;49.984;10.672;2024-01-16T00:47:35;0.70;94.60
30134;DHT22;16946;49.984;10.672;2024-01-16T00:48:06;0.70;94.60
30134;DHT22;16946;49.984;10.672;2024-01-16T00:48:36;0.70;97.30
30134;DHT22;16946;49.984;10.672;2024-01-16T00:49:07;0.60;99.90
30134;DHT22;16946;49.984;10.672;2024-01-16T00:49:38;0.70;99.90
30134;DHT22;16946;49.984;10.672;2024-01-16T00:50:08;0.70;96.40
30134;DHT22;16946;49.984;10.672;2024-01-16T00:50:39;0.60;94.90
30134;DHT22;16946;49.984;10.672;2024-01-16T00:51:10;0.60;94.80
30134;DHT22;16946;49.984;10.672;2024-01-16T00:51:40;0.60;95.90
30134;DHT22;16946;49.984;10.672;2024-01-16T00:52:11;0.70;99.60
30134;DHT22;16946;49.984;10.672;2024-01-16T00:52:41;0.60;99.90
30134;DHT22;16946;49.984;10.672;2024-01-16T00:53:12;0.60;98.30
30134;DHT22;16946;49.984;10.672;2024-01-16T00:53:43;0.60;95.30
30134;DHT22;16946;49.984;10.672;2024-01-16T00:54:14;0.60;93.70
30134;DHT22;16946;49.984;10.672;2024-01-16T00:54:45;0.70;94.20
30134;DHT22;16946;49.984;10.672;2024-01-16T00:55:15;0.70;91.60
30134;DHT22;16946;49.984;10.672;2024-01-16T00:55:46;0.70;89.50
30134;DHT22;16946;49.984;10.672;2024-01-16T00:56:16;0.70;92.20
30134;DHT22;16946;49.984;10.672;2024-01-16T00:56:47;0.70;95.00
30134;DHT22;16946;49.984;10.672;2024-01-16T00:57:18;0.70;94.30
30134;DHT22;16946;49.984;10.672;2024-01-16T00:57:51;0.70;89.60
30134;DHT22;16946;49.984;10.672;2024-01-16T00:58:22;0.70;80.50
30134;DHT22;16946;49.984;10.672;2024-01-16T00:58:53;0.70;87.50
30134;DHT22;16946;49.984;10.672;2024-01-16T00:59:24;0.70;91.30
30134;DHT22;16946;49.984;10.672;2024-01-16T00:59:54;0.70;94.00
30134;DHT22;16946;49.984;10.672;2024-01-16T01:00:25;0.70;94.00
30134;DHT22;16946;49.984;10.672;2024-01-16T01:00:55;0.60;95.20
30134;DHT22;16946;49.984;10.672;2024-01-16T01:01:26;0.70;97.30
30134;DHT22;16946;49.984;10.672;2024-01-16T01:01:56;0.60;98.10
30134;DHT22;16946;49.984;10.672;2024-01-16T01:02:27;0.60;99.70
30134;DHT22;16946;49.984;10.672;2024-01-16T01:02:57;0.60;99.90
30134;DHT22;16946;49.984;10.672;2024-01-16T01:03:29;0.60;99.90
30134;DHT22;16946;49.984;10.672;2024-01-16T01:03:59;0.70;99.90
30134;DHT22;16946;49.984;10.672;2024-01-16T01:04:32;0.60;97.50
30134;DHT22;16946;49.984;10.672;2024-01-16T01:05:03;0.60;97.30
30134;DHT22;16946;49.984;10.672;2024-01-16T01:05:34;0.60;97.50
30134;DHT22;16946;49.984;10.672;2024-01-16T01:06:05;0.60;95.80
30134;DHT22;16946;49.984;10.672;2024-01-16T01:06:35;0.60;95.20
30134;DHT22;16946;49.984;10.672;2024-01-16T01:07:06;0.60;96.30
30134;DHT22;16946;49.984;10.672;2024-01-16T01:07:37;0.60;99.60
30134;DHT22;16946;49.984;10.672;2024-01-16T01:08:07;0.60;99.90
30134;DHT22;16946;49.984;10.672;2024-01-16T01:08:38;0.70;98.30
30134;DHT22;16946;49.984;10.672;2024-01-16T01:09:09;0.70;95.00
30134;DHT22;16946;49.984;10.672;2024-01-16T01:09:42;0.70;94.40
30134;DHT22;16946;49.984;10.672;2024-01-16T01:10:12;0.60;96.90
30134;DHT22;16946;49.984;10.672;2024-01-16T01:10:43;0.60;98.00
30134;DHT22;16946;49.984;10.672;2024-01-16T01:11:13;0.60;98.60
30134;DHT22;16946;49.984;10.672;2024-01-16T01:11:44;0.70;96.50
30134;DHT22;16946;49.984;10.672;2024-01-16T01:12:14;0.70;93.10
30134;DHT22;16946;49.984;10.672;2024-01-16T01:12:45;0.70;94.30
30134;DHT22;16946;49.984;10.672;2024-01-16T01:13:15;0.70;94.70
30134;DHT22;16946;49.984;10.672;2024-01-16T01:13:46;0.60;91.80
30134;DHT22;16946;49.984;10.672;2024-01-16T01:14:16;0.60;92.70
30134;DHT22;16946;49.984;10.672;2024-01-16T01:14:47;0.60;98.70
30134;DHT22;16946;49.984;10.672;2024-01-16T01:15:17;0.60;99.90
30134;DHT22;16946;49.984;10.672;2024-01-16T01:15:48;0.60;93.20
30134;DHT22;16946;49.984;10.672;2024-01-16T01:16:18;0.60;95.60
30134;DHT22;16946;49.984;10.672;2024-01-16T01:16:49;0.60;94.00
30134;DHT22;16946;49.984;10.672;2024-01-16T01:17:19;0.60;98.50
30134;DHT22;16946;49.984;10.672;2024-01-16T01:17:50;0.60;99.90
30134;DHT22;16946;49.984;10.672;2024-01-16T01:18:21;0.60;99.90
30134;DHT22;16946;49.984;10.672;2024-01-16T01:18:53;0.70;99.60
30134;DHT22;16946;49.984;10.672;2024-01-16T01:19:23;0.70;94.40
30134;DHT22;16946;49.984;10.672;2024-01-16T01:19:54;0.70;93.50
30134;DHT22;16946;49.984;10.672;2024-01-16T01:20:24;0.70;92.80
30134;DHT22;16946;49.984;10.672;2024-01-16T01:20:56;0.70;87.50
30134;DHT22;16946;49.984;10.672;2024-01-16T01:21:26;0.70;88.90
30134;DHT22;16946;49.984;10.672;2024-01-16T01:21:57;0.70;90.60
30134;DHT22;16946;49.984;10.672;2024-01-16T01:22:28;0.80;90.70
30134;DHT22;16946;49.984;10.672;2024-01-16T01:22:58;0.80;86.50
30134;DHT22;16946;49.984;10.672;2024-01-16T01:23:30;0.80;85.00
30134;DHT22;16946;49.984;10.672;2024-01-16T01:24:01;0.80;90.30
30134;DHT22;16946;49.984;10.672;2024-01-16T01:24:31;0.80;90.80
30134;DHT22;16946;49.984;10.672;2024-01-16T01:25:02;0.80;90.10
30134;DHT22;16946;49.984;10.672;2024-01-16T01:25:33;0.80;82.70
30134;DHT22;16946;49.984;10.672;2024-01-16T01:26:03;0.80;82.50
30134;DHT22;16946;49.984;10.672;2024-01-16T01:26:35;0.80;82.60
30134;DHT22;16946;49.984;10.672;2024-01-16T01:27:06;0.80;79.70
30134;DHT22;16946;49.984;10.672;2024-01-16T01:27:37;0.80;79.10
30134;DHT22;16946;49.984;10.672;2024-01-16T01:28:07;0.80;79.00
30134;DHT22;16946;49.984;10.672;2024-01-16T01:28:38;0.80;81.40
30134;DHT22;16946;49.984;10.672;2024-01-16T01:29:10;0.70;68.70
30134;DHT22;16946;49.984;10.672;2024-01-16T01:29:41;0.70;69.30
30134;DHT22;16946;49.984;10.672;2024-01-16T01:30:11;0.80;73.50
30134;DHT22;16946;49.984;10.672;2024-01-16T01:30:42;0.70;73.10
30134;DHT22;16946;49.984;10.672;2024-01-16T01:31:12;0.70;72.20
30134;DHT22;16946;49.984;10.672;2024-01-16T01:31:46;0.80;71.10
30134;DHT22;16946;49.984;10.672;2024-01-16T01:32:18;0.70;70.80
30134;DHT22;16946;49.984;10.672;2024-01-16T01:32:48;0.70;77.20
30134;DHT22;16946;49.984;10.672;2024-01-16T01:33:19;0.70;81.00
30134;DHT22;16946;49.984;10.672;2024-01-16T01:33:49;0.70;80.00
30134;DHT22;16946;49.984;10.672;2024-01-16T01:34:20;0.70;80.50
30134;DHT22;16946;49.984;10.672;2024-01-16T01:34:50;0.70;79.50
30134;DHT22;16946;49.984;10.672;2024-01-16T01:35:21;0.70;74.90
30134;DHT22;16946;49.984;10.672;2024-01-16T01:35:51;0.70;77.70
30134;DHT22;16946;49.984;10.672;2024-01-16T01:36:22;0.70;77.00
30134;DHT22;16946;49.984;10.672;2024-01-16T01:36:52;0.70;74.70
30134;DHT22;16946;49.984;10.672;2024-01-16T01:37:23;0.80;76.30
30134;DHT22;16946;49.984;10.672;2024-01-16T01:37:53;0.80;70.90
30134;DHT22;16946;49.984;10.672;2024-01-16T01:38:24;0.80;71.10
30134;DHT22;16946;49.984;10.672;2024-01-16T01:38:54;0.80;73.80
30134;DHT22;16946;49.984;10.672;2024-01-16T01:39:25;0.80;70.10
30134;DHT22;16946;49.984;10.672;2024-01-16T01:39:56;0.80;69.40
30134;DHT22;16946;49.984;10.672;2024-01-16T01:40:26;0.80;66.20
30134;DHT22;16946;49.984;10.672;2024-01-16T01:40:57;0.80;60.40
30134;DHT22;16946;49.984;10.672;2024-01-16T01:41:27;0.80;62.00
30134;DHT22;16946;49.984;10.672;2024-01-16T01:41:58;0.80;68.50
30134;DHT22;16946;49.984;10.672;2024-01-16T01:42:29;0.80;71.90
30134;DHT22;16946;49.984;10.672;2024-01-16T01:43:17;0.80;72.40
30134;DHT22;16946;49.984;10.672;2024-01-16T01:43:48;0.80;69.40
30134;DHT22;16946;49.984;10.672;2024-01-16T01:44:19;0.80;71.40
30134;DHT22;16946;49.984;10.672;2024-01-16T01:44:49;0.90;67.30
30134;DHT22;16946;49.984;10.672;2024-01-16T01:45:20;0.90;66.00
30134;DHT22;16946;49.984;10.672;2024-01-16T01:46:08;0.90;65.40
30134;DHT22;16946;49.984;10.672;2024-01-16T01:46:39;0.90;64.80
30134;DHT22;16946;49.984;10.672;2024-01-16T01:47:10;0.90;57.40
30134;DHT22;16946;49.984;10.672;2024-01-16T01:47:41;0.90;59.70
30134;DHT22;16946;49.984;10.672;2024-01-16T01:48:15;0.90;61.90
30134;DHT22;16946;49.984;10.672;2024-01-16T01:48:47;0.80;55.00
30134;DHT22;16946;49.984;10.672;2024-01-16T01:49:18;0.80;61.30
30134;DHT22;16946;49.984;10.672;2024-01-16T01:49:48;0.80;63.80
30134;DHT22;16946;49.984;10.672;2024-01-16T01:50:19;0.80;67.30
30134;DHT22;16946;49.984;10.672;2024-01-16T01:50:50;0.70;72.00
30134;DHT22;16946;49.984;10.672;2024-01-16T01:51:21;0.80;76.40
30134;DHT22;16946;49.984;10.672;2024-01-16T01:51:52;0.80;77.50
30134;DHT22;16946;49.984;10.672;2024-01-16T01:52:23;0.80;80.60
30134;DHT22;16946;49.984;10.672;2024-01-16T01:52:54;0.80;80.40
30134;DHT22;16946;49.984;10.672;2024-01-16T01:53:24;0.80;77.30
30134;DHT22;16946;49.984;10.672;2024-01-16T01:53:55;0.80;70.60
30134;DHT22;16946;49.984;10.672;2024-01-16T01:54:26;0.80;68.90
30134;DHT22;16946;49.984;10.672;2024-01-16T01:54:58;0.80;66.20
30134;DHT22;16946;49.984;10.672;2024-01-16T01:55:28;0.80;69.40
30134;DHT22;16946;49.984;10.672;2024-01-16T01:56:04;0.80;70.60
30134;DHT22;16946;49.984;10.672;2024-01-16T01:56:37;0.70;84.40
30134;DHT22;16946;49.984;10.672;2024-01-16T01:57:08;0.70;87.50
30134;DHT22;16946;49.984;10.672;2024-01-16T01:57:40;0.70;84.50
30134;DHT22;16946;49.984;10.672;2024-01-16T01:58:10;0.70;83.70
30134;DHT22;16946;49.984;10.672;2024-01-16T01:58:44;0.80;85.50
30134;DHT22;16946;49.984;10.672;2024-01-16T01:59:17;0.80;81.50
30134;DHT22;16946;49.984;10.672;2024-01-16T01:59:49;0.70;74.60
30134;DHT22;16946;49.984;10.672;2024-01-16T02:00:19;0.70;68.20
30134;DHT22;16946;49.984;10.672;2024-01-16T02:00:50;0.80;69.70
30134;DHT22;16946;49.984;10.672;2024-01-16T02:01:22;0.70;67.50
30134;DHT22;16946;49.984;10.672;2024-01-16T02:01:53;0.70;65.60
30134;DHT22;16946;49.984;10.672;2024-01-16T02:02:24;0.70;69.10
30134;DHT22;16946;49.984;10.672;2024-01-16T02:02:55;0.70;72.40
30134;DHT22;16946;49.984;10.672;2024-01-16T02:03:27;0.60;71.70
30134;DHT22;16946;49.984;10.672;2024-01-16T02:04:00;0.60;76.60
30134;DHT22;16946;49.984;10.672;2024-01-16T02:04:32;0.60;74.00
30134;DHT22;16946;49.984;10.672;2024-01-16T02:05:03;0.70;74.70
30134;DHT22;16946;49.984;10.672;2024-01-16T02:05:34;0.70;68.70
30134;DHT22;16946;49.984;10.672;2024-01-16T02:06:04;0.70;70.40
30134;DHT22;16946;49.984;10.672;2024-01-16T02:06:35;0.70;72.30
30134;DHT22;16946;49.984;10.672;2024-01-16T02:07:06;0.70;70.50
30134;DHT22;16946;49.984;10.672;2024-01-16T02:07:38;0.70;70.30
30134;DHT22;16946;49.984;10.672;2024-01-16T02:08:09;0.70;77.50
30134;DHT22;16946;49.984;10.672;2024-01-16T02:08:40;0.70;77.00
30134;DHT22;16946;49.984;10.672;2024-01-16T02:09:11;0.70;69.00
30134;DHT22;16946;49.984;10.672;2024-01-16T02:09:44;0.70;63.80
30134;DHT22;16946;49.984;10.672;2024-01-16T02:10:14;0.70;65.90
30134;DHT22;16946;49.984;10.672;2024-01-16T02:10:47;0.70;66.60
30134;DHT22;16946;49.984;10.672;2024-01-16T02:11:19;0.70;71.10
30134;DHT22;16946;49.984;10.672;2024-01-16T02:11:50;0.70;66.00
30134;DHT22;16946;49.984;10.672;2024-01-16T02:12:20;0.70;70.10
30134;DHT22;16946;49.984;10.672;2024-01-16T02:12:51;0.70;72.80
30134;DHT22;16946;49.984;10.672;2024-01-16T02:13:21;0.60;74.90
30134;DHT22;16946;49.984;10.672;2024-01-16T02:13:53;0.60;71.20
30134;DHT22;16946;49.984;10.672;2024-01-16T02:14:24;0.60;72.70
30134;DHT22;16946;49.984;10.672;2024-01-16T02:14:54;0.60;76.60
30134;DHT22;16946;49.984;10.672;2024-01-16T02:15:25;0.60;76.60
30134;DHT22;16946;49.984;10.672;2024-01-16T02:15:55;0.50;78.50
30134;DHT22;16946;49.984;10.672;2024-01-16T02:16:26;0.60;80.20
30134;DHT22;16946;49.984;10.672;2024-01-16T02:16:56;0.60;74.30
30134;DHT22;16946;49.984;10.672;2024-01-16T02:17:27;0.60;73.10
30134;DHT22;16946;49.984;10.672;2024-01-16T02:17:57;0.60;73.90
30134;DHT22;16946;49.984;10.672;2024-01-16T02:18:28;0.60;75.90
30134;DHT22;16946;49.984;10.672;2024-01-16T02:18:58;0.60;78.30
30134;DHT22;16946;49.984;10.672;2024-01-16T02:19:29;0.60;77.10
30134;DHT22;16946;49.984;10.672;2024-01-16T02:19:59;0.60;74.40
30134;DHT22;16946;49.984;10.672;2024-01-16T02:20:31;0.60;74.20
30134;DHT22;16946;49.984;10.672;2024-01-16T02:21:05;0.60;74.00
30134;DHT22;16946;49.984;10.672;2024-01-16T02:21:43;0.70;76.00
30134;DHT22;16946;49.984;10.672;2024-01-16T02:22:16;0.70;77.00
30134;DHT22;16946;49.984;10.672;2024-01-16T02:22:52;0.70;70.10
30134;DHT22;16946;49.984;10.672;2024-01-16T02:23:27;0.70;67.10
30134;DHT22;16946;49.984;10.672;2024-01-16T02:23:58;0.70;69.10
30134;DHT22;16946;49.984;10.672;2024-01-16T02:24:29;0.70;74.70
30134;DHT22;16946;49.984;10.672;2024-01-16T02:24:59;0.70;83.40
30134;DHT22;16946;49.984;10.672;2024-01-16T02:25:30;0.80;81.50
30134;DHT22;16946;49.984;10.672;2024-01-16T02:26:01;0.80;72.90
30134;DHT22;16946;49.984;10.672;2024-01-16T02:26:33;0.80;73.70
30134;DHT22;16946;49.984;10.672;2024-01-16T02:27:04;0.80;71.40
30134;DHT22;16946;49.984;10.672;2024-01-16T02:27:34;0.80;73.80
30134;DHT22;16946;49.984;10.672;2024-01-16T02:28:05;0.80;70.80
30134;DHT22;16946;49.984;10.672;2024-01-16T02:28:35;0.80;59.50
30134;DHT22;16946;49.984;10.672;2024-01-16T02:29:06;0.80;59.80
30134;DHT22;16946;49.984;10.672;2024-01-16T02:29:45;0.80;58.20
30134;DHT22;16946;49.984;10.672;2024-01-16T02:30:16;0.80;55.20
30134;DHT22;16946;49.984;10.672;2024-01-16T02:30:47;0.80;56.20
30134;DHT22;16946;49.984;10.672;2024-01-16T02:31:17;0.70;58.10
30134;DHT22;16946;49.984;10.672;2024-01-16T02:31:48;0.70;60.90
30134;DHT22;16946;49.984;10.672;2024-01-16T02:32:18;0.70;66.30
30134;DHT22;16946;49.984;10.672;2024-01-16T02:32:49;0.70;66.20
30134;DHT22;16946;49.984;10.672;2024-01-16T02:33:19;0.60;66.60
30134;DHT22;16946;49.984;10.672;2024-01-16T02:33:50;0.60;68.20
30134;DHT22;16946;49.984;10.672;2024-01-16T02:34:20;0.60;71.50
30134;DHT22;16946;49.984;10.672;2024-01-16T02:34:51;0.60;75.60
30134;DHT22;16946;49.984;10.672;2024-01-16T02:35:22;0.60;70.80
30134;DHT22;16946;49.984;10.672;2024-01-16T02:35:52;0.60;70.50
30134;DHT22;16946;49.984;10.672;2024-01-16T02:36:23;0.60;72.10
30134;DHT22;16946;49.984;10.672;2024-01-16T02:36:54;0.60;78.70
30134;DHT22;16946;49.984;10.672;2024-01-16T02:37:24;0.60;80.10
30134;DHT22;16946;49.984;10.672;2024-01-16T02:37:56;0.50;78.40
30134;DHT22;16946;49.984;10.672;2024-01-16T02:38:26;0.50;83.70
30134;DHT22;16946;49.984;10.672;2024-01-16T02:38:57;0.60;75.30
30134;DHT22;16946;49.984;10.672;2024-01-16T02:39:27;0.50;71.40
30134;DHT22;16946;49.984;10.672;2024-01-16T02:39:58;0.60;77.00
30134;DHT22;16946;49.984;10.672;2024-01-16T02:40:28;0.60;74.20
30134;DHT22;16946;49.984;10.672;2024-01-16T02:40:59;0.50;66.30
30134;DHT22;16946;49.984;10.672;2024-01-16T02:41:29;0.50;72.10
30134;DHT22;16946;49.984;10.672;2024-01-16T02:42:00;0.50;75.00
30134;DHT22;16946;49.984;10.672;2024-01-16T02:42:31;0.50;75.40
30134;DHT22;16946;49.984;10.672;2024-01-16T02:43:02;0.50;75.70
30134;DHT22;16946;49.984;10.672;2024-01-16T02:43:32;0.50;71.50
30134;DHT22;16946;49.984;10.672;2024-01-16T02:44:03;0.50;59.30
30134;DHT22;16946;49.984;10.672;2024-01-16T02:44:34;0.50;64.80
30134;DHT22;16946;49.984;10.672;2024-01-16T02:45:05;0.50;67.40
30134;DHT22;16946;49.984;10.672;2024-01-16T02:45:36;0.50;71.10
30134;DHT22;16946;49.984;10.672;2024-01-16T02:46:06;0.50;75.20
30134;DHT22;16946;49.984;10.672;2024-01-16T02:46:37;0.50;71.40
30134;DHT22;16946;49.984;10.672;2024-01-16T02:47:09;0.60;67.70
30134;DHT22;16946;49.984;10.672;2024-01-16T02:47:39;0.60;58.60
30134;DHT22;16946;49.984;10.672;2024-01-16T02:48:10;0.60;51.40
30134;DHT22;16946;49.984;10.672;2024-01-16T02:48:42;0.50;53.70
30134;DHT22;16946;49.984;10.672;2024-01-16T02:49:15;0.50;58.10
30134;DHT22;16946;49.984;10.672;2024-01-16T02:49:46;0.60;58.80
30134;DHT22;16946;49.984;10.672;2024-01-16T02:50:17;0.60;60.40
30134;DHT22;16946;49.984;10.672;2024-01-16T02:50:47;0.60;60.60
30134;DHT22;16946;49.984;10.672;2024-01-16T02:51:18;0.60;49.10
30134;DHT22;16946;49.984;10.672;2024-01-16T02:51:48;0.60;54.80
30134;DHT22;16946;49.984;10.672;2024-01-16T02:52:19;0.60;59.80
30134;DHT22;16946;49.984;10.672;2024-01-16T02:52:50;0.60;61.50
30134;DHT22;16946;49.984;10.672;2024-01-16T02:53:20;0.70;60.90
30134;DHT22;16946;49.984;10.672;2024-01-16T02:53:51;0.70;56.10
30134;DHT22;16946;49.984;10.672;2024-01-16T02:54:22;0.70;56.00
30134;DHT22;16946;49.984;10.672;2024-01-16T02:54:52;0.80;50.50
30134;DHT22;16946;49.984;10.672;2024-01-16T02:55:23;0.70;41.80
30134;DHT22;16946;49.984;10.672;2024-01-16T02:55:54;0.70;39.70
30134;DHT22;16946;49.984;10.672;2024-01-16T02:56:25;0.70;44.30
30134;DHT22;16946;49.984;10.672;2024-01-16T02:56:55;0.70;49.80
30134;DHT22;16946;49.984;10.672;2024-01-16T02:57:26;0.70;49.20
30134;DHT22;16946;49.984;10.672;2024-01-16T02:57:56;0.70;47.20
30134;DHT22;16946;49.984;10.672;2024-01-16T02:58:28;0.70;38.40
30134;DHT22;16946;49.984;10.672;2024-01-16T02:58:58;0.70;36.90
30134;DHT22;16946;49.984;10.672;2024-01-16T02:59:29;0.70;35.20
30134;DHT22;16946;49.984;10.672;2024-01-16T03:00:01;0.70;36.80
30134;DHT22;16946;49.984;10.672;2024-01-16T03:00:31;0.70;29.80
30134;DHT22;16946;49.984;10.672;2024-01-16T03:01:02;0.70;36.30
30134;DHT22;16946;49.984;10.672;2024-01-16T03:01:33;0.60;40.50
30134;DHT22;16946;49.984;10.672;2024-01-16T03:02:03;0.60;42.60
30134;DHT22;16946;49.984;10.672;2024-01-16T03:02:34;0.70;42.20
30134;DHT22;16946;49.984;10.672;2024-01-16T03:03:05;0.70;39.70
30134;DHT22;16946;49.984;10.672;2024-01-16T03:03:36;0.60;33.70
30134;DHT22;16946;49.984;10.672;2024-01-16T03:04:06;0.70;35.90
30134;DHT22;16946;49.984;10.672;2024-01-16T03:04:37;0.70;39.00
30134;DHT22;16946;49.984;10.672;2024-01-16T03:05:08;0.70;37.60
30134;DHT22;16946;49.984;10.672;2024-01-16T03:05:38;0.70;34.50
30134;DHT22;16946;49.984;10.672;2024-01-16T03:06:09;0.70;37.10
30134;DHT22;16946;49.984;10.672;2024-01-16T03:06:39;0.70;34.50
30134;DHT22;16946;49.984;10.672;2024-01-16T03:07:10;0.70;35.00
30134;DHT22;16946;49.984;10.672;2024-01-16T03:07:41;0.70;34.30
30134;DHT22;16946;49.984;10.672;2024-01-16T03:08:11;0.70;30.40
30134;DHT22;16946;49.984;10.672;2024-01-16T03:08:42;0.70;27.30
30134;DHT22;16946;49.984;10.672;2024-01-16T03:09:12;0.70;27.70
30134;DHT22;16946;49.984;10.672;2024-01-16T03:09:43;0.70;26.70
30134;DHT22;16946;49.984;10.672;2024-01-16T03:10:14;0.70;29.30
30134;DHT22;16946;49.984;10.672;2024-01-16T03:10:44;0.80;32.10
30134;DHT22;16946;49.984;10.672;2024-01-16T03:11:15;0.80;32.60
30134;DHT22;16946;49.984;10.672;2024-01-16T03:11:46;0.80;29.30
30134;DHT22;16946;49.984;10.672;2024-01-16T03:12:17;0.70;27.60
30134;DHT22;16946;49.984;10.672;2024-01-16T03:12:47;0.70;27.90
30134;DHT22;16946;49.984;10.672;2024-01-16T03:13:18;0.70;27.30
30134;DHT22;16946;49.984;10.672;2024-01-16T03:13:48;0.70;25.30
30134;DHT22;16946;49.984;10.672;2024-01-16T03:14:22;0.70;25.10
30134;DHT22;16946;49.984;10.672;2024-01-16T03:14:53;0.70;27.30
30134;DHT22;16946;49.984;10.672;2024-01-16T03:15:24;0.70;29.40
30134;DHT22;16946;49.984;10.672;2024-01-16T03:15:55;0.70;33.60